Time;durP1;ratioP1;P1;durP2;ratioP2;P2;SDS_P1;SDS_P2;PMS_P1;PMS_P2;Temp;Humidity;BMP_temperature;BMP_pressure;BME280_temperature;BME280_humidity;BME280_pressure;Samples;Min_cycle;Max_cycle;Signal;HPM_P1;HPM_P2
2022/05/24 00:00:34;;;;;;;5.15;2.38;;;22.20;51.60;;;;;;4840579;29;20069;-77
2022/05/24 00:03:01;;;;;;;3.38;2.08;;;22.20;52.20;;;;;;4840363;29;20041;-77
2022/05/24 00:05:29;;;;;;;8.85;2.45;;;22.20;52.40;;;;;;4840644;29;20032;-77
2022/05/24 00:07:55;;;;;;;7.53;2.47;;;22.20;51.50;;;;;;4840329;29;20665;-77
2022/05/24 00:10:29;;;;;;;4.97;2.25;;;22.20;51.60;;;;;;4842753;29;20030;-77
2022/05/24 00:12:55;;;;;;;6.38;2.30;;;22.20;51.60;;;;;;4844545;29;20038;-77
2022/05/24 00:15:28;;;;;;;4.85;2.10;;;22.20;51.70;;;;;;4844361;29;20030;-77
2022/05/24 00:18:07;;;;;;;4.57;2.30;;;22.20;51.70;;;;;;4858506;29;20045;-77
2022/05/24 00:20:40;;;;;;;3.83;2.22;;;22.20;51.70;;;;;;4842947;29;20045;-77
2022/05/24 00:23:06;;;;;;;4.10;2.17;;;22.20;51.70;;;;;;4858501;29;20611;-77
2022/05/24 00:25:35;;;;;;;4.28;2.25;;;22.10;51.70;;;;;;4844116;29;20044;-77
2022/05/24 00:28:01;;;;;;;5.55;2.78;;;22.20;51.80;;;;;;4843972;29;20030;-78
2022/05/24 00:30:27;;;;;;;6.40;2.00;;;22.20;51.80;;;;;;4843909;29;20026;-77
2022/05/24 00:32:54;;;;;;;4.63;2.03;;;22.20;51.80;;;;;;4844003;29;20492;-77
2022/05/24 00:35:20;;;;;;;3.58;2.20;;;22.20;52.20;;;;;;4843923;29;20061;-77
2022/05/24 00:37:47;;;;;;;6.82;2.33;;;22.20;52.00;;;;;;4858177;29;20061;-77
2022/05/24 00:40:23;;;;;;;5.47;2.50;;;22.20;52.50;;;;;;4843812;29;20150;-77
2022/05/24 00:42:50;;;;;;;7.63;2.60;;;22.20;52.60;;;;;;4844088;29;20117;-78
2022/05/24 00:45:45;;;;;;;5.75;2.33;;;22.20;52.20;;;;;;4843683;29;20084;-78
2022/05/24 00:48:39;;;;;;;8.38;2.47;;;22.20;52.10;;;;;;4842266;29;20125;-78
2022/05/24 00:51:09;;;;;;;5.03;2.08;;;22.20;52.10;;;;;;4843435;29;20026;-78
2022/05/24 00:53:48;;;;;;;4.25;1.92;;;22.20;52.40;;;;;;4843693;29;20042;-78
2022/05/24 00:56:18;;;;;;;6.60;2.60;;;22.20;52.20;;;;;;4843383;29;20089;-78
2022/05/24 00:58:53;;;;;;;4.70;1.90;;;22.10;52.00;;;;;;4842052;29;20033;-78
2022/05/24 01:01:41;;;;;;;6.85;2.40;;;22.10;52.20;;;;;;4843311;29;20034;-78
2022/05/24 01:04:10;;;;;;;8.75;2.00;;;22.10;52.20;;;;;;4843438;29;20042;-78
2022/05/24 01:06:36;;;;;;;5.32;2.10;;;22.10;52.20;;;;;;4843259;29;20496;-78
2022/05/24 01:09:07;;;;;;;6.47;2.42;;;22.20;52.40;;;;;;4843022;29;20034;-77
2022/05/24 01:11:37;;;;;;;4.05;2.20;;;22.10;52.30;;;;;;4857715;29;20451;-77
2022/05/24 01:14:04;;;;;;;6.90;1.95;;;22.10;52.30;;;;;;4842120;29;20026;-77
2022/05/24 01:16:30;;;;;;;5.78;2.33;;;22.10;52.80;;;;;;4826919;29;20037;-77
2022/05/24 01:18:55;;;;;;;8.90;2.28;;;22.10;53.10;;;;;;4841810;29;20037;-76
2022/05/24 01:21:22;;;;;;;5.05;2.22;;;22.10;52.70;;;;;;4842534;29;20407;-77
2022/05/24 01:24:14;;;;;;;6.38;2.35;;;22.10;52.50;;;;;;4843355;29;20503;-77
2022/05/24 01:26:49;;;;;;;6.32;2.15;;;22.10;52.40;;;;;;4842953;29;20041;-76
2022/05/24 01:29:17;;;;;;;5.38;2.13;;;22.10;52.50;;;;;;4842838;29;20034;-76
2022/05/24 01:37:14;;;;;;;5.30;2.30;;;22.10;52.70;;;;;;4842790;29;20026;-77
2022/05/24 01:39:42;;;;;;;5.53;2.13;;;22.10;52.60;;;;;;4857134;29;20038;-77
2022/05/24 01:42:11;;;;;;;7.63;2.55;;;22.10;52.50;;;;;;4843005;29;20471;-77
2022/05/24 01:44:47;;;;;;;7.75;2.55;;;22.10;52.40;;;;;;4841653;29;20037;-77
2022/05/24 01:47:14;;;;;;;6.65;2.38;;;22.10;52.50;;;;;;4841616;29;20038;-77
2022/05/24 01:49:44;;;;;;;6.53;2.28;;;22.10;52.50;;;;;;4842456;29;20392;-76
2022/05/24 01:52:32;;;;;;;6.22;2.30;;;22.10;52.60;;;;;;4842752;29;20448;-76
2022/05/24 01:55:13;;;;;;;4.72;2.03;;;22.10;52.60;;;;;;4841444;29;20491;-76
2022/05/24 01:57:47;;;;;;;10.48;2.47;;;22.10;52.60;;;;;;4856625;29;20054;-77
2022/05/24 02:00:15;;;;;;;5.90;2.45;;;22.10;52.70;;;;;;4841550;29;20105;-76
2022/05/24 02:02:42;;;;;;;7.03;2.20;;;22.10;52.70;;;;;;4841311;29;20034;-76
2022/05/24 02:05:09;;;;;;;5.30;2.05;;;22.10;52.70;;;;;;4842509;29;20030;-76
2022/05/24 02:07:35;;;;;;;7.35;2.28;;;22.10;52.90;;;;;;4840811;29;20029;-77
2022/05/24 02:10:00;;;;;;;8.68;2.63;;;22.10;52.70;;;;;;4842849;29;20361;-77
2022/05/24 02:12:36;;;;;;;6.78;2.42;;;22.10;52.80;;;;;;4841950;29;20460;-77
2022/05/24 02:15:07;;;;;;;8.70;2.60;;;22.10;52.90;;;;;;4842471;29;20041;-77
2022/05/24 02:17:39;;;;;;;9.57;2.20;;;22.10;52.90;;;;;;4840701;29;20483;-76
2022/05/24 02:20:05;;;;;;;6.13;2.00;;;22.00;52.90;;;;;;4842244;29;20128;-77
2022/05/24 02:22:31;;;;;;;4.95;1.98;;;22.10;53.10;;;;;;4842252;29;20037;-77
2022/05/24 02:25:06;;;;;;;5.35;2.33;;;22.10;53.10;;;;;;4842012;29;20036;-77
2022/05/24 02:27:39;;;;;;;5.07;2.17;;;22.10;53.10;;;;;;4856056;29;20086;-77
2022/05/24 02:30:06;;;;;;;7.90;2.30;;;22.10;53.00;;;;;;4856486;29;20399;-77
2022/05/24 02:32:32;;;;;;;6.85;2.30;;;22.10;53.00;;;;;;4825220;29;20108;-77
2022/05/24 02:34:57;;;;;;;7.75;2.60;;;22.10;53.30;;;;;;4840362;29;20105;-77
2022/05/24 02:37:23;;;;;;;6.03;2.20;;;22.10;52.80;;;;;;4840421;29;20488;-77
2022/05/24 02:42:34;;;;;;;5.28;2.42;;;22.10;52.70;;;;;;4841755;29;20029;-77
2022/05/24 02:45:00;;;;;;;4.95;2.30;;;22.10;52.70;;;;;;4841836;29;20070;-77
2022/05/24 02:47:26;;;;;;;8.50;2.03;;;22.10;52.80;;;;;;4841530;29;20049;-77
2022/05/24 02:49:52;;;;;;;5.65;2.30;;;22.10;52.70;;;;;;4840428;29;20475;-77
2022/05/24 02:52:17;;;;;;;4.00;1.92;;;22.10;52.70;;;;;;4841657;29;20034;-77
2022/05/24 02:54:43;;;;;;;6.13;2.30;;;22.10;52.70;;;;;;4841745;29;20642;-76
2022/05/24 02:57:09;;;;;;;4.20;2.10;;;22.10;52.80;;;;;;4841618;29;20492;-77
2022/05/24 02:59:35;;;;;;;5.50;2.22;;;22.10;52.80;;;;;;4841166;29;20030;-77
2022/05/24 03:02:04;;;;;;;4.63;2.22;;;22.10;52.80;;;;;;4841877;29;20506;-77
2022/05/24 03:04:30;;;;;;;5.50;2.20;;;22.10;52.80;;;;;;4855591;29;20054;-77
2022/05/24 03:09:40;;;;;;;7.18;2.55;;;22.10;52.90;;;;;;4841373;29;20026;-76
2022/05/24 03:14:54;;;;;;;5.88;2.10;;;22.10;53.00;;;;;;4840132;29;20030;-76
2022/05/24 03:17:21;;;;;;;8.07;2.42;;;22.10;52.90;;;;;;4841036;29;20042;-75
2022/05/24 03:19:47;;;;;;;5.25;2.03;;;22.10;53.00;;;;;;4840929;29;20037;-76
2022/05/24 03:22:13;;;;;;;4.03;2.15;;;22.10;53.00;;;;;;4841234;29;20487;-76
2022/05/24 03:24:40;;;;;;;7.28;2.40;;;22.10;53.60;;;;;;4840981;29;20042;-76
2022/05/24 03:27:11;;;;;;;7.38;2.17;;;22.10;53.10;;;;;;4855398;29;20097;-76
2022/05/24 03:29:42;;;;;;;4.78;2.10;;;22.10;53.00;;;;;;4839519;29;20104;-77
2022/05/24 03:32:09;;;;;;;5.50;2.15;;;22.10;53.10;;;;;;4841048;29;20032;-76
2022/05/24 03:34:36;;;;;;;4.88;1.98;;;22.10;53.10;;;;;;4840870;29;20057;-77
2022/05/24 03:37:02;;;;;;;6.93;2.45;;;22.10;53.20;;;;;;4840971;29;20479;-76
2022/05/24 03:39:28;;;;;;;5.07;2.20;;;22.10;53.10;;;;;;4840683;29;20034;-76
2022/05/24 03:41:54;;;;;;;5.38;2.30;;;22.10;53.30;;;;;;4840795;29;20099;-76
2022/05/24 03:44:20;;;;;;;6.45;2.42;;;22.10;53.30;;;;;;4840485;29;20030;-76
2022/05/24 03:46:46;;;;;;;8.15;2.38;;;22.10;53.30;;;;;;4839595;29;20549;-76
2022/05/24 03:49:14;;;;;;;6.20;2.20;;;22.10;53.10;;;;;;4840606;29;20184;-75
2022/05/24 03:51:40;;;;;;;6.65;2.10;;;22.10;53.20;;;;;;4855090;29;20104;-75
2022/05/24 03:54:07;;;;;;;5.90;2.20;;;22.10;53.20;;;;;;4840807;29;20437;-76
2022/05/24 03:56:34;;;;;;;7.40;2.35;;;22.10;53.20;;;;;;4840620;29;20033;-76
2022/05/24 03:58:59;;;;;;;8.18;2.30;;;22.10;53.30;;;;;;4840433;29;20074;-77
2022/05/24 04:01:25;;;;;;;4.13;2.47;;;22.10;53.30;;;;;;4840802;29;20038;-78
2022/05/24 04:03:52;;;;;;;5.03;2.25;;;22.10;53.30;;;;;;4854915;29;20041;-77
2022/05/24 04:06:18;;;;;;;4.38;2.05;;;22.10;53.40;;;;;;4840596;29;20025;-76
2022/05/24 04:08:45;;;;;;;9.77;2.65;;;22.10;53.40;;;;;;4840623;29;20083;-76
2022/05/24 04:11:12;;;;;;;6.22;2.28;;;22.10;53.50;;;;;;4854448;29;20452;-76
2022/05/24 04:13:40;;;;;;;5.82;2.25;;;22.10;53.50;;;;;;4839606;29;20495;-76
2022/05/24 04:16:08;;;;;;;4.95;2.30;;;22.10;53.50;;;;;;4840589;29;20034;-76
2022/05/24 04:18:34;;;;;;;4.13;1.85;;;22.10;53.60;;;;;;4822065;29;20073;-76
2022/05/24 04:21:01;;;;;;;6.82;2.35;;;22.10;53.60;;;;;;4840388;29;20411;-76
2022/05/24 04:23:26;;;;;;;5.85;2.15;;;22.10;53.70;;;;;;4839287;29;20045;-76
2022/05/24 04:25:54;;;;;;;5.45;2.25;;;22.10;53.60;;;;;;4840112;29;20391;-76
2022/05/24 04:28:20;;;;;;;4.03;2.00;;;22.10;53.70;;;;;;4839806;29;20077;-76
2022/05/24 04:30:48;;;;;;;7.57;2.20;;;22.10;53.80;;;;;;4839022;29;20026;-76
2022/05/24 04:33:15;;;;;;;4.95;2.17;;;22.10;53.60;;;;;;4840502;29;20401;-76
2022/05/24 04:35:42;;;;;;;4.50;2.10;;;22.10;53.60;;;;;;4840246;29;20109;-77
2022/05/24 04:38:08;;;;;;;4.75;2.53;;;22.10;53.60;;;;;;4838613;29;20038;-76
2022/05/24 04:43:18;;;;;;;4.80;2.03;;;22.10;53.70;;;;;;4840217;29;20041;-77
2022/05/24 04:45:44;;;;;;;4.38;2.15;;;22.10;53.70;;;;;;4840244;29;20038;-76
2022/05/24 04:48:10;;;;;;;3.65;2.10;;;22.10;53.80;;;;;;4840035;29;20105;-77
2022/05/24 04:50:37;;;;;;;4.82;2.50;;;22.10;53.70;;;;;;4840173;29;20168;-77
2022/05/24 04:53:03;;;;;;;7.00;2.40;;;22.10;53.70;;;;;;4840180;29;20159;-76
2022/05/24 04:55:29;;;;;;;3.85;2.00;;;22.10;53.80;;;;;;4839070;29;20054;-76
2022/05/24 04:57:56;;;;;;;5.90;2.65;;;22.10;53.70;;;;;;4842588;29;20034;-76
2022/05/24 05:00:23;;;;;;;5.97;2.30;;;22.10;53.80;;;;;;4843580;29;20041;-76
2022/05/24 05:02:49;;;;;;;5.72;2.63;;;22.10;53.90;;;;;;4842388;29;20042;-76
2022/05/24 05:05:15;;;;;;;5.55;2.05;;;22.10;53.90;;;;;;4842358;29;20465;-76
2022/05/24 05:07:42;;;;;;;5.47;2.25;;;22.10;53.90;;;;;;4843194;29;20117;-77
2022/05/24 05:10:09;;;;;;;5.30;2.35;;;22.10;54.00;;;;;;4842402;29;20030;-77
2022/05/24 05:12:35;;;;;;;8.07;2.83;;;22.10;54.10;;;;;;4842558;29;20030;-77
2022/05/24 05:15:03;;;;;;;3.78;2.45;;;22.10;54.10;;;;;;4844012;29;20030;-77
2022/05/24 05:17:29;;;;;;;11.18;2.50;;;22.10;54.10;;;;;;4826925;29;20037;-77
2022/05/24 05:19:55;;;;;;;4.97;2.30;;;22.10;54.20;;;;;;4842022;29;20093;-77
2022/05/24 05:22:23;;;;;;;7.15;2.50;;;22.10;54.20;;;;;;4842142;29;20026;-77
2022/05/24 05:24:49;;;;;;;6.47;2.63;;;22.10;54.20;;;;;;4857511;29;20148;-78
2022/05/24 05:27:15;;;;;;;9.10;2.78;;;22.10;54.30;;;;;;4841914;29;20105;-78
2022/05/24 05:32:30;;;;;;;6.10;2.70;;;22.10;54.30;;;;;;4843201;29;20376;-77
2022/05/24 05:35:00;;;;;;;5.70;2.47;;;22.10;54.40;;;;;;4843393;29;20049;-77
2022/05/24 05:37:26;;;;;;;;;;;22.10;54.50;;;;;;4842168;29;20030;-77
2022/05/24 05:39:52;;;;;;;4.15;2.63;;;22.10;54.40;;;;;;4841912;29;19916;-77
2022/05/24 05:42:19;;;;;;;5.45;2.60;;;22.10;54.30;;;;;;4857362;29;20521;-77
2022/05/24 05:44:46;;;;;;;5.18;2.60;;;22.10;54.30;;;;;;4843026;29;20094;-77
2022/05/24 05:47:11;;;;;;;6.72;2.45;;;22.10;54.40;;;;;;4842863;29;20504;-77
2022/05/24 05:49:37;;;;;;;4.57;2.60;;;22.10;54.30;;;;;;4842615;29;20117;-76
2022/05/24 05:52:03;;;;;;;5.18;2.58;;;22.10;54.30;;;;;;4843131;29;20059;-77
2022/05/24 05:54:29;;;;;;;4.78;2.75;;;22.10;54.50;;;;;;4841543;29;20117;-77
2022/05/24 05:56:55;;;;;;;5.03;2.20;;;22.10;54.50;;;;;;4826320;29;20117;-77
2022/05/24 05:59:21;;;;;;;6.95;2.78;;;22.10;54.30;;;;;;4842336;29;20038;-77
2022/05/24 06:01:46;;;;;;;6.20;3.00;;;22.10;54.50;;;;;;4842721;29;20030;-77
2022/05/24 06:04:12;;;;;;;7.32;2.50;;;22.10;54.40;;;;;;4842632;29;20172;-77
2022/05/24 06:06:41;;;;;;;7.07;2.80;;;22.10;54.50;;;;;;4842515;29;20101;-77
2022/05/24 06:09:06;;;;;;;5.15;2.63;;;22.10;54.60;;;;;;4841162;29;20384;-78
2022/05/24 06:11:32;;;;;;;5.85;2.60;;;22.10;54.50;;;;;;4842731;29;20026;-78
2022/05/24 06:13:58;;;;;;;6.72;3.40;;;22.10;54.60;;;;;;4841259;29;20022;-78
2022/05/24 06:16:24;;;;;;;4.97;2.90;;;22.10;54.60;;;;;;4842815;29;20522;-78
2022/05/24 06:18:50;;;;;;;7.13;2.65;;;22.10;54.60;;;;;;4825839;29;20179;-78
2022/05/24 06:21:15;;;;;;;5.38;2.72;;;22.10;54.70;;;;;;4842692;29;20124;-78
2022/05/24 06:23:41;;;;;;;4.95;2.72;;;22.10;54.70;;;;;;4842723;29;20037;-78
2022/05/24 06:26:08;;;;;;;5.40;3.00;;;22.10;54.60;;;;;;4841573;29;20034;-78
2022/05/24 06:28:34;;;;;;;6.80;3.13;;;22.10;54.80;;;;;;4842656;29;20036;-78
2022/05/24 06:31:00;;;;;;;7.18;3.10;;;22.10;54.70;;;;;;4842806;29;20029;-78
2022/05/24 06:33:26;;;;;;;7.88;2.40;;;22.10;54.70;;;;;;4842977;29;20037;-78
2022/05/24 06:35:52;;;;;;;5.93;2.53;;;22.10;54.80;;;;;;4841818;29;20034;-78
2022/05/24 06:38:18;;;;;;;4.85;2.65;;;22.10;54.90;;;;;;4857750;29;20034;-78
2022/05/24 06:40:46;;;;;;;6.45;2.90;;;22.10;54.90;;;;;;4859046;29;20048;-78
2022/05/24 06:43:13;;;;;;;5.10;2.67;;;22.10;54.90;;;;;;4842867;29;20398;-77
2022/05/24 06:45:40;;;;;;;6.45;2.90;;;22.10;54.90;;;;;;4856012;29;20101;-78
2022/05/24 06:48:10;;;;;;;5.05;2.63;;;22.10;54.90;;;;;;4840384;29;20037;-78
2022/05/24 06:50:37;;;;;;;8.52;2.90;;;22.10;54.80;;;;;;4855912;29;20034;-78
2022/05/24 06:53:03;;;;;;;5.80;3.13;;;22.10;54.70;;;;;;4841926;29;20026;-78
2022/05/24 06:55:29;;;;;;;5.07;2.78;;;22.10;54.70;;;;;;4840607;29;20037;-78
2022/05/24 06:57:55;;;;;;;8.73;3.20;;;22.10;54.70;;;;;;4841383;29;20489;-77
2022/05/24 07:03:08;;;;;;;9.88;2.78;;;22.10;54.70;;;;;;4842017;29;20057;-78
2022/05/24 07:05:34;;;;;;;8.75;2.80;;;22.10;54.90;;;;;;4825283;29;20404;-78
2022/05/24 07:08:01;;;;;;;5.57;2.90;;;22.10;54.90;;;;;;4841452;29;20086;-78
2022/05/24 07:10:28;;;;;;;7.50;2.90;;;22.10;54.80;;;;;;4840159;29;20030;-78
2022/05/24 07:13:18;;;;;;;6.93;2.75;;;22.10;54.70;;;;;;4825468;29;20030;-78
2022/05/24 07:15:45;;;;;;;9.27;3.05;;;22.10;54.80;;;;;;4841521;29;20060;-78
2022/05/24 07:18:12;;;;;;;8.18;3.47;;;22.20;54.70;;;;;;4841023;29;20090;-79
2022/05/24 07:20:37;;;;;;;6.03;3.00;;;22.10;54.70;;;;;;4824245;29;20064;-79
2022/05/24 07:23:16;;;;;;;6.97;2.90;;;22.10;54.80;;;;;;4855657;29;20145;-79
2022/05/24 07:25:43;;;;;;;5.18;3.05;;;22.10;54.80;;;;;;4855308;29;20034;-79
2022/05/24 07:28:10;;;;;;;8.50;3.42;;;22.20;55.00;;;;;;4841146;29;20025;-79
2022/05/24 07:30:37;;;;;;;6.20;3.10;;;22.20;54.80;;;;;;4841002;29;20034;-78
2022/05/24 07:33:03;;;;;;;5.10;2.80;;;22.10;54.80;;;;;;4841232;29;20026;-78
2022/05/24 07:35:28;;;;;;;5.47;3.00;;;22.10;54.80;;;;;;4841264;29;20033;-79
2022/05/24 07:37:55;;;;;;;5.70;2.90;;;22.10;54.90;;;;;;4839798;29;20547;-79
2022/05/24 07:45:53;;;;;;;6.28;3.10;;;22.10;54.90;;;;;;4840632;29;20042;-79
2022/05/24 07:48:20;;;;;;;5.35;3.20;;;22.20;55.50;;;;;;4824607;29;20510;-78
2022/05/24 07:50:46;;;;;;;5.53;3.08;;;22.10;54.90;;;;;;4835391;29;20499;-78
2022/05/24 07:53:13;;;;;;;6.25;3.05;;;22.10;54.90;;;;;;4818823;29;20054;-78
2022/05/24 07:55:39;;;;;;;6.40;3.08;;;22.20;55.00;;;;;;4822766;29;20038;-79
2022/05/24 07:58:04;;;;;;;6.75;2.97;;;22.10;54.90;;;;;;4822427;29;20484;-78
2022/05/24 08:00:30;;;;;;;8.35;3.17;;;22.20;55.60;;;;;;4822562;29;20070;-78
2022/05/24 08:02:56;;;;;;;13.50;3.30;;;22.20;55.50;;;;;;4822375;29;20060;-78
2022/05/24 08:05:23;;;;;;;8.80;3.30;;;22.20;56.10;;;;;;4822502;29;20031;-78
2022/05/24 08:07:54;;;;;;;7.20;2.72;;;22.20;56.20;;;;;;4837945;29;20066;-78
2022/05/24 08:10:20;;;;;;;7.28;3.20;;;22.20;56.50;;;;;;4840020;29;20548;-77
2022/05/24 08:12:46;;;;;;;10.52;3.40;;;22.30;56.40;;;;;;4835979;29;20080;-76
2022/05/24 08:15:13;;;;;;;9.50;2.90;;;22.20;56.00;;;;;;4839734;29;20058;-78
2022/05/24 08:17:38;;;;;;;8.18;3.03;;;22.20;56.40;;;;;;4839578;29;20103;-78
2022/05/24 08:20:06;;;;;;;14.38;4.10;;;22.20;56.40;;;;;;4822837;29;20056;-77
2022/05/24 08:22:31;;;;;;;9.95;4.05;;;22.20;57.00;;;;;;4839858;29;20030;-78
2022/05/24 08:24:57;;;;;;;9.45;4.38;;;22.20;57.10;;;;;;4843879;29;20044;-77
2022/05/24 08:27:23;;;;;;;9.77;3.72;;;22.30;57.70;;;;;;4846963;29;20038;-76
2022/05/24 08:29:48;;;;;;;10.32;4.75;;;22.30;57.80;;;;;;4853860;29;20038;-79
2022/05/24 08:32:14;;;;;;;9.38;4.05;;;22.30;58.40;;;;;;4840724;29;20514;-78
2022/05/24 08:34:40;;;;;;;11.13;3.88;;;22.30;58.60;;;;;;4842865;29;20030;-78
2022/05/24 08:37:06;;;;;;;9.65;4.18;;;22.30;58.40;;;;;;4843697;29;20030;-77
2022/05/24 08:39:32;;;;;;;11.43;4.38;;;22.30;59.30;;;;;;4843160;29;20403;-78
2022/05/24 08:42:20;;;;;;;11.30;4.53;;;22.40;58.80;;;;;;4827008;29;20042;-79
2022/05/24 08:50:35;;;;;;;8.52;4.38;;;22.40;58.50;;;;;;4852966;29;19927;-75
2022/05/24 08:53:06;;;;;;;8.43;4.10;;;22.30;57.90;;;;;;4859823;29;20410;-75
2022/05/24 08:55:33;;;;;;;9.40;4.60;;;22.30;59.50;;;;;;4842331;29;20494;-75
2022/05/24 08:58:00;;;;;;;8.55;4.13;;;22.20;58.40;;;;;;4858733;29;20038;-75
2022/05/24 09:00:32;;;;;;;14.15;4.57;;;22.20;58.20;;;;;;4842744;29;20034;-75
2022/05/24 09:02:58;;;;;;;12.00;5.50;;;22.20;57.40;;;;;;4842311;29;20108;-75
2022/05/24 09:05:35;;;;;;;9.05;4.35;;;22.30;57.80;;;;;;4842706;29;20041;-75
2022/05/24 09:08:16;;;;;;;11.43;4.10;;;22.30;57.60;;;;;;4829770;29;20041;-75
2022/05/24 09:11:00;;;;;;;8.25;3.60;;;22.30;57.50;;;;;;4847540;29;20495;-75
2022/05/24 09:13:45;;;;;;;8.60;3.60;;;22.30;57.50;;;;;;4872889;29;20033;-78
2022/05/24 09:16:14;;;;;;;6.07;3.42;;;22.30;57.50;;;;;;4858962;29;20529;-79
2022/05/24 09:19:13;;;;;;;8.73;3.60;;;22.30;57.60;;;;;;4860030;29;20561;-79
2022/05/24 09:21:42;;;;;;;8.40;3.10;;;22.30;57.20;;;;;;4860031;29;20037;-79
2022/05/24 09:24:17;;;;;;;;;;;22.30;57.40;;;;;;4860504;29;20033;-79
2022/05/24 09:27:09;;;;;;;6.70;3.03;;;22.30;57.50;;;;;;4861518;29;19916;-79
2022/05/24 09:29:50;;;;;;;9.15;3.05;;;22.30;57.40;;;;;;4861096;29;20033;-78
2022/05/24 09:32:17;;;;;;;14.20;3.05;;;22.30;57.50;;;;;;4860471;29;20030;-79
2022/05/24 09:34:43;;;;;;;8.65;3.63;;;22.30;57.50;;;;;;4859902;29;20033;-79
2022/05/24 09:37:27;;;;;;;8.52;3.45;;;22.30;57.50;;;;;;4860100;29;20211;-80
2022/05/24 09:40:17;;;;;;;8.35;3.17;;;22.40;57.50;;;;;;4861068;29;20076;-79
2022/05/24 09:42:43;;;;;;;11.07;3.00;;;22.40;57.50;;;;;;4853905;29;20037;-79
2022/05/24 09:45:17;;;;;;;6.55;3.10;;;22.40;57.50;;;;;;4875600;29;20034;-79
2022/05/24 09:47:43;;;;;;;8.88;3.08;;;22.40;57.40;;;;;;4860847;29;20037;-79
2022/05/24 09:50:15;;;;;;;6.22;2.90;;;22.40;57.30;;;;;;4860792;29;20146;-79
2022/05/24 09:52:41;;;;;;;7.22;2.70;;;22.40;57.30;;;;;;4861011;29;20029;-79
2022/05/24 09:55:07;;;;;;;6.32;2.75;;;22.40;57.20;;;;;;4860730;29;20104;-80
2022/05/24 09:57:33;;;;;;;9.65;2.95;;;22.40;57.20;;;;;;4860532;29;20029;-80
2022/05/24 10:00:09;;;;;;;8.23;3.05;;;22.40;57.20;;;;;;4859751;29;20037;-74
2022/05/24 10:02:39;;;;;;;6.72;2.70;;;22.50;57.00;;;;;;4860633;29;20069;-75
2022/05/24 10:05:17;;;;;;;9.15;2.40;;;22.40;57.20;;;;;;4860572;29;20025;-75
2022/05/24 10:08:04;;;;;;;6.30;2.45;;;22.50;56.50;;;;;;4860364;29;20074;-75
2022/05/24 10:10:35;;;;;;;7.95;2.50;;;22.50;56.50;;;;;;4860428;29;20443;-75
2022/05/24 10:13:16;;;;;;;6.43;2.20;;;22.40;56.60;;;;;;4860541;29;20029;-74
2022/05/24 10:15:54;;;;;;;12.32;2.55;;;22.40;55.80;;;;;;4860302;29;20521;-75
2022/05/24 10:18:38;;;;;;;11.45;2.58;;;22.40;55.20;;;;;;4860275;29;20041;-75
2022/05/24 10:21:40;;;;;;;5.68;2.03;;;22.40;55.50;;;;;;4874649;29;20057;-75
2022/05/24 10:24:31;;;;;;;9.32;3.03;;;22.40;55.50;;;;;;4843795;29;20033;-75
2022/05/24 10:27:13;;;;;;;7.38;3.08;;;22.40;55.10;;;;;;4860303;29;20082;-75
2022/05/24 10:29:42;;;;;;;6.75;3.38;;;22.40;55.50;;;;;;4860159;29;20060;-76
2022/05/24 10:38:17;;;;;;;12.25;3.08;;;22.40;55.30;;;;;;4860085;29;20033;-75
2022/05/24 10:38:44;;;;;;;7.28;2.72;;;22.40;55.80;;;;;;4842547;29;20041;-75
2022/05/24 10:41:16;;;;;;;9.10;2.42;;;22.40;55.70;;;;;;4816344;29;20038;-75
2022/05/24 10:43:54;;;;;;;19.58;2.80;;;22.50;55.50;;;;;;4823384;29;20041;-73
2022/05/24 10:46:32;;;;;;;7.22;2.70;;;22.40;55.50;;;;;;4822481;29;20500;-75
2022/05/24 10:49:22;;;;;;;7.97;2.40;;;22.50;55.30;;;;;;4823081;29;20033;-76
2022/05/24 10:52:00;;;;;;;14.57;3.28;;;22.50;55.50;;;;;;4822196;29;20409;-76
2022/05/24 10:54:45;;;;;;;7.72;2.30;;;22.50;56.90;;;;;;4821390;29;20036;-78
2022/05/24 10:57:35;;;;;;;11.90;3.95;;;22.50;55.80;;;;;;4821934;29;20043;-78
2022/05/24 11:00:04;;;;;;;;;;;22.50;55.60;;;;;;4837612;29;20098;-79
2022/05/24 11:03:09;;;;;;;6.72;2.22;;;22.50;55.80;;;;;;4822044;29;19917;-79
2022/05/24 11:05:43;;;;;;;8.13;2.25;;;22.40;55.60;;;;;;4821926;29;20045;-79
2022/05/24 11:08:14;;;;;;;11.73;2.63;;;22.50;55.50;;;;;;4836598;29;20037;-79
2022/05/24 11:10:42;;;;;;;8.13;2.97;;;22.40;55.80;;;;;;4823140;29;20035;-79
2022/05/24 11:13:15;;;;;;;6.97;2.53;;;22.40;55.90;;;;;;4823193;29;20030;-79
2022/05/24 11:15:52;;;;;;;15.13;2.85;;;22.40;55.70;;;;;;4823415;29;20325;-79
2022/05/24 11:18:24;;;;;;;10.57;2.50;;;22.40;56.00;;;;;;4821600;29;20038;-79
2022/05/24 11:21:10;;;;;;;11.20;2.53;;;22.40;56.10;;;;;;4837023;29;20042;-79
2022/05/24 11:23:45;;;;;;;8.02;2.40;;;22.40;56.00;;;;;;4837226;29;20462;-79
2022/05/24 11:26:24;;;;;;;9.77;2.67;;;22.40;55.90;;;;;;4821763;29;20065;-79
2022/05/24 11:28:59;;;;;;;7.20;2.55;;;22.40;55.90;;;;;;4822647;29;20046;-79
2022/05/24 11:31:37;;;;;;;9.60;2.65;;;22.40;56.00;;;;;;4822974;29;20030;-80
2022/05/24 11:34:24;;;;;;;7.93;2.40;;;22.40;56.00;;;;;;4821680;29;20022;-80
2022/05/24 11:37:11;;;;;;;7.70;2.30;;;22.40;56.10;;;;;;4823119;29;20088;-80
2022/05/24 11:39:39;;;;;;;5.60;2.20;;;22.40;56.00;;;;;;4821397;29;20038;-80
2022/05/24 11:42:21;;;;;;;7.88;2.35;;;22.40;56.00;;;;;;4837205;29;20039;-79
2022/05/24 11:44:48;;;;;;;8.55;2.30;;;22.40;56.00;;;;;;4822660;29;20064;-80
2022/05/24 11:47:46;;;;;;;8.85;2.55;;;22.40;56.00;;;;;;4806333;29;20217;-80
2022/05/24 11:50:30;;;;;;;4.00;2.00;;;22.40;56.00;;;;;;4817533;29;20046;-80
2022/05/24 11:53:17;;;;;;;6.20;2.00;;;22.40;56.10;;;;;;4822557;29;20441;-81
2022/05/24 11:55:53;;;;;;;7.85;2.42;;;22.40;56.00;;;;;;4822458;29;20492;-80
2022/05/24 11:58:18;;;;;;;5.00;2.67;;;22.40;56.10;;;;;;4822142;29;20060;-80
2022/05/24 12:01:09;;;;;;;5.75;2.22;;;22.40;56.00;;;;;;4822838;29;20038;-80
2022/05/24 12:09:14;;;;;;;4.72;2.30;;;22.40;56.00;;;;;;4822221;29;20381;-79
2022/05/24 12:11:40;;;;;;;5.90;1.90;;;22.40;56.00;;;;;;4822482;29;20050;-80
2022/05/24 12:14:24;;;;;;;7.20;2.15;;;22.30;55.90;;;;;;4836633;29;20035;-80
2022/05/24 12:17:09;;;;;;;4.22;2.00;;;22.40;55.90;;;;;;4821165;29;20050;-80
2022/05/24 12:19:38;;;;;;;11.45;2.83;;;22.30;55.80;;;;;;4821826;29;20039;-80
2022/05/24 12:22:08;;;;;;;4.70;2.20;;;22.30;55.80;;;;;;4822222;29;20050;-80
2022/05/24 12:24:37;;;;;;;4.30;2.03;;;22.40;55.80;;;;;;4822330;29;20034;-80
2022/05/24 12:27:20;;;;;;;4.25;1.90;;;22.30;55.90;;;;;;4821128;29;20034;-80
2022/05/24 12:29:57;;;;;;;5.28;2.30;;;22.40;55.90;;;;;;4836337;29;20122;-79
2022/05/24 12:32:25;;;;;;;5.00;1.92;;;22.30;55.90;;;;;;4822150;29;20082;-80
2022/05/24 12:34:51;;;;;;;4.63;2.38;;;22.30;55.80;;;;;;4822303;29;20095;-80
2022/05/24 12:37:30;;;;;;;4.53;2.35;;;22.30;55.90;;;;;;4821965;29;20106;-79
2022/05/24 12:40:19;;;;;;;3.42;2.00;;;22.30;55.90;;;;;;4820985;29;20113;-80
2022/05/24 12:42:52;;;;;;;4.68;2.00;;;22.30;55.80;;;;;;4820985;29;20091;-79
2022/05/24 12:45:40;;;;;;;5.05;2.17;;;22.30;55.80;;;;;;4821961;29;20038;-80
2022/05/24 12:48:32;;;;;;;11.43;2.13;;;22.30;55.80;;;;;;4821836;29;20130;-79
2022/05/24 12:51:09;;;;;;;4.25;2.30;;;22.30;55.70;;;;;;4821043;29;20031;-80
2022/05/24 12:53:37;;;;;;;7.55;2.40;;;22.30;55.70;;;;;;4836272;29;20066;-80
2022/05/24 12:56:08;;;;;;;4.50;2.10;;;22.30;55.70;;;;;;4822182;29;20094;-79
2022/05/24 12:58:43;;;;;;;6.47;1.98;;;22.40;55.70;;;;;;4821985;29;20126;-79
2022/05/24 13:01:31;;;;;;;4.10;2.05;;;22.40;55.60;;;;;;4821037;29;20057;-79
2022/05/24 13:04:14;;;;;;;4.43;1.60;;;22.40;55.70;;;;;;4805873;29;20034;-79
2022/05/24 13:06:52;;;;;;;5.97;1.77;;;22.40;55.60;;;;;;4805673;29;20054;-79
2022/05/24 13:09:20;;;;;;;5.63;2.00;;;22.40;55.70;;;;;;4835496;29;20488;-78
2022/05/24 13:11:50;;;;;;;3.03;1.77;;;22.40;55.60;;;;;;4836086;29;20042;-79
2022/05/24 13:14:38;;;;;;;3.25;1.90;;;22.30;55.60;;;;;;4822204;29;20499;-79
2022/05/24 13:17:07;;;;;;;4.93;1.80;;;22.30;55.40;;;;;;4821897;29;20042;-78
2022/05/24 13:19:54;;;;;;;5.28;2.10;;;22.30;55.40;;;;;;4823360;29;20038;-79
2022/05/24 13:22:36;;;;;;;5.38;1.75;;;22.40;55.60;;;;;;4823755;29;20457;-78
2022/05/24 13:25:02;;;;;;;3.78;1.88;;;22.30;55.50;;;;;;4838981;29;20453;-79
2022/05/24 13:27:53;;;;;;;4.03;1.77;;;22.30;55.50;;;;;;4824648;29;20142;-79
2022/05/24 13:33:48;;;;;;;3.80;1.88;;;22.30;55.60;;;;;;4824890;29;20562;-80
2022/05/24 13:36:18;;;;;;;4.88;2.00;;;22.30;55.60;;;;;;4824776;29;20050;-79
2022/05/24 13:38:48;;;;;;;5.05;2.08;;;22.30;55.50;;;;;;4824357;29;20034;-77
2022/05/24 13:41:26;;;;;;;4.32;2.00;;;22.30;55.50;;;;;;4823420;29;20091;-78
2022/05/24 13:44:07;;;;;;;5.22;2.10;;;22.30;55.50;;;;;;4808682;29;20051;-77
2022/05/24 13:46:55;;;;;;;4.78;1.92;;;22.30;55.40;;;;;;4823458;29;20035;-78
2022/05/24 13:49:43;;;;;;;5.38;2.00;;;22.30;55.50;;;;;;4824244;29;20084;-76
2022/05/24 13:52:15;;;;;;;3.53;1.92;;;22.30;55.50;;;;;;4824570;29;20030;-78
2022/05/24 13:54:41;;;;;;;6.93;2.13;;;22.30;55.40;;;;;;4824234;29;20420;-78